Aeroporto :
LOGIN :

Iscrizione | Disclaimer

   EN    FR    IT 

 










Sommario :    VFR   VFR Marginale   IFR   IFR Intensivo   IFR Molto Intensivo
Visibilità : 
Base nubi : 
>= 8 km
>= 3000ft
5 / 8 km
1000 / 3000 ft
1500m / 5 km
500 / 1000 ft
800 / 1500m
200 / 500 ft
< 800m
< 200 ft
Simboli :   Temporali  Nebbia  Neve Forte  Precipitazioni Forti  Vento > 20 kt
SIGMETs :   Varie  Temporali  Ghiacco  Turbolenza  Onda orograficha  Ceneri Vulcaniche






- Altitudine del aeroporto : 1455 ft


ETIH - Hohenfels Army Air Field

ULTIMO METAR :
  • 080556Z AUTO 00000KT 4000 HZ CLR 03/M01 A3034 RMK AO2 SLP281 T00331007 10043 20002 55001 $

METARs OBSOLETI :
  • 080526Z AUTO 00000KT 3200 HZ CLR 01/M02 A3034 RMK AO2 SLP281 $
  • 080521Z AUTO 00000KT 3000 HZ CLR 01/M02 A3034 RMK AO2 SLP281 $
  • 080506Z AUTO 00000KT 3200 HZ CLR 01/M02 A3034 RMK AO2 SLP281 $
  • 080441Z AUTO 00000KT 3000 HZ CLR 01/M02 A3033 RMK AO2 SLP275 $
  • 080416Z AUTO 00000KT 4400 HZ CLR 01/M02 A3033 RMK AO2 SLP275 $
  • 080356Z AUTO 00000KT 5000 HZ CLR 01/M02 A3033 RMK AO2 SLP275 T00091022 $

Previsioni scadute.



MetMap, La meteo Aeronautica in un colpo d'occhio ! - Copyright ORBIFLY Dicembre 2007 - Disclaimer

ORBIFLY MET'MAP TEAM :

Programmazione e sviluppo : Alexandra Zaïnal
Concezione : Baudouin d'Aumeries
Aiuto per la programmazione : Marc-Olivier Méhu
Supporto tecnico e logistico : Manuel Goepfert
Aiuto per la traduzione : Arnaldo La Scala

Contatto : metmap@orbifly.com




FONTI E CREDITI :

   NOAA